createdAt,value
2018-12-21T00:01:09.127Z,8.60
2018-12-21T00:03:38.381Z,13.13
2018-12-21T00:06:07.777Z,10.17
2018-12-21T00:08:37.027Z,10.13
2018-12-21T00:11:06.387Z,10.73
2018-12-21T00:13:35.666Z,9.17
2018-12-21T00:16:04.961Z,8.13
2018-12-21T00:18:34.282Z,8.83
2018-12-21T00:21:03.552Z,9.00
2018-12-21T00:23:32.912Z,11.07
2018-12-21T00:26:02.141Z,8.53
2018-12-21T00:28:31.596Z,8.33
2018-12-21T00:31:18.691Z,9.43
2018-12-21T00:34:05.532Z,9.27
2018-12-21T00:36:52.430Z,9.43
2018-12-21T00:39:39.570Z,6.43
2018-12-21T00:42:13.769Z,8.90
2018-12-21T00:44:43.060Z,10.03
2018-12-21T00:47:15.047Z,8.63
2018-12-21T00:49:44.363Z,6.83
2018-12-21T00:52:13.613Z,8.80
2018-12-21T00:54:42.935Z,6.30
2018-12-21T00:57:12.217Z,6.90
2018-12-21T00:59:41.547Z,5.60
2018-12-21T01:02:10.792Z,4.47
2018-12-21T01:04:40.127Z,5.37
2018-12-21T01:07:09.381Z,4.57
2018-12-21T01:09:38.666Z,3.93
2018-12-21T01:12:07.925Z,3.63
2018-12-21T01:14:37.270Z,5.83
2018-12-21T01:17:06.650Z,4.10
2018-12-21T01:19:36.031Z,3.27
2018-12-21T01:22:05.337Z,4.57
2018-12-21T01:24:34.605Z,3.03
2018-12-21T01:27:03.949Z,3.77
2018-12-21T01:29:33.221Z,3.10
2018-12-21T01:32:02.562Z,2.83
2018-12-21T01:34:31.847Z,2.43
2018-12-21T01:37:01.132Z,2.17
2018-12-21T01:39:30.366Z,3.50
2018-12-21T01:41:59.631Z,2.63
2018-12-21T01:44:28.892Z,4.07
2018-12-21T01:46:58.223Z,3.33
2018-12-21T01:49:27.491Z,2.90
2018-12-21T01:51:56.807Z,2.33
2018-12-21T01:54:26.072Z,3.17
2018-12-21T01:56:55.288Z,3.63
2018-12-21T01:59:24.646Z,3.03
2018-12-21T02:01:53.932Z,3.70
2018-12-21T02:04:23.222Z,4.50
2018-12-21T02:06:52.532Z,3.53
2018-12-21T02:09:22.217Z,3.73
2018-12-21T02:11:51.548Z,4.13
2018-12-21T02:14:20.865Z,3.07
2018-12-21T02:16:50.158Z,2.50
2018-12-21T02:19:19.466Z,3.73
2018-12-21T02:21:55.893Z,2.93
2018-12-21T02:24:17.996Z,4.87
2018-12-21T02:26:47.204Z,5.00
2018-12-21T02:29:16.494Z,5.90
2018-12-21T02:31:45.741Z,3.77
2018-12-21T02:34:15.025Z,3.83
2018-12-21T02:36:44.361Z,3.73
2018-12-21T02:39:13.713Z,7.03
2018-12-21T02:41:42.895Z,4.93
2018-12-21T02:44:12.176Z,4.10
2018-12-21T02:46:41.496Z,3.90
2018-12-21T02:49:10.886Z,3.97
2018-12-21T02:51:40.167Z,4.40
2018-12-21T02:54:09.435Z,4.47
2018-12-21T02:56:38.705Z,4.17
2018-12-21T02:59:08.033Z,2.90
2018-12-21T03:01:37.384Z,4.10
2018-12-21T03:04:06.633Z,3.70
2018-12-21T03:06:35.985Z,3.90
2018-12-21T03:09:09.245Z,2.77
2018-12-21T03:11:38.524Z,3.20
2018-12-21T03:14:07.839Z,2.90
2018-12-21T03:16:37.168Z,3.63
2018-12-21T03:19:06.587Z,4.33
2018-12-21T03:21:35.868Z,5.90
2018-12-21T03:24:05.149Z,4.73
2018-12-21T03:26:34.452Z,5.97
2018-12-21T03:29:03.720Z,4.63
2018-12-21T03:31:32.958Z,5.00
2018-12-21T03:34:02.270Z,5.50
2018-12-21T03:36:31.515Z,5.47
2018-12-21T03:39:00.902Z,5.80
2018-12-21T03:41:30.183Z,6.17
2018-12-21T03:43:59.500Z,7.23
2018-12-21T03:46:28.767Z,10.13
2018-12-21T03:48:58.091Z,8.37
2018-12-21T03:51:27.368Z,5.17
2018-12-21T03:53:56.585Z,8.70
2018-12-21T03:56:25.818Z,6.73
2018-12-21T03:58:55.128Z,4.90
2018-12-21T04:01:24.397Z,4.83
2018-12-21T04:03:53.674Z,6.63
2018-12-21T04:06:22.928Z,6.23
2018-12-21T04:08:52.184Z,8.10
2018-12-21T04:11:21.420Z,7.30
2018-12-21T04:13:50.794Z,6.83
2018-12-21T04:16:20.495Z,7.53
2018-12-21T04:18:49.806Z,6.83
2018-12-21T04:21:19.071Z,8.57
2018-12-21T04:23:48.408Z,9.47
2018-12-21T04:26:17.689Z,7.03
2018-12-21T04:28:46.938Z,7.37
2018-12-21T04:31:16.339Z,6.90
2018-12-21T04:33:45.593Z,8.40
2018-12-21T04:36:14.876Z,7.60
2018-12-21T04:38:44.174Z,6.73
2018-12-21T04:41:13.410Z,6.50
2018-12-21T04:43:42.633Z,8.90
2018-12-21T04:46:11.930Z,8.40
2018-12-21T04:48:41.187Z,9.73
2018-12-21T04:51:10.464Z,7.70
2018-12-21T04:53:39.809Z,7.90
2018-12-21T04:56:09.220Z,7.87
2018-12-21T04:58:38.444Z,6.37
2018-12-21T05:01:07.734Z,8.87
2018-12-21T05:03:36.970Z,7.50
2018-12-21T05:06:06.270Z,6.77
2018-12-21T05:08:35.611Z,8.30
2018-12-21T05:11:04.913Z,8.50
2018-12-21T05:13:34.203Z,11.73
2018-12-21T05:16:03.493Z,8.73
2018-12-21T05:18:32.800Z,11.77
2018-12-21T05:21:02.111Z,6.67
2018-12-21T05:23:31.400Z,7.47
2018-12-21T05:26:00.660Z,7.63
2018-12-21T05:28:30.017Z,7.67
2018-12-21T05:30:59.328Z,9.57
2018-12-21T05:33:28.602Z,8.10
2018-12-21T05:35:57.898Z,10.10
2018-12-21T05:38:27.167Z,8.03
2018-12-21T05:40:56.434Z,12.40
2018-12-21T05:43:25.704Z,10.97
2018-12-21T05:45:55.015Z,6.93
2018-12-21T05:48:24.270Z,9.97
2018-12-21T05:50:53.515Z,7.90
2018-12-21T05:53:22.815Z,10.63
2018-12-21T05:55:52.140Z,10.97
2018-12-21T05:58:21.517Z,5.30
2018-12-21T06:00:50.803Z,7.13
2018-12-21T06:03:20.125Z,6.20
2018-12-21T06:05:49.451Z,8.80
2018-12-21T06:08:19.036Z,5.33
2018-12-21T06:10:48.275Z,6.03
2018-12-21T06:13:17.527Z,7.57
2018-12-21T06:15:46.834Z,10.80
2018-12-21T06:18:16.094Z,6.93
2018-12-21T06:20:45.436Z,7.00
2018-12-21T06:23:14.760Z,7.23
2018-12-21T06:25:44.024Z,8.20
2018-12-21T06:28:13.283Z,9.40
2018-12-21T06:30:42.633Z,5.37
2018-12-21T06:33:11.969Z,7.23
2018-12-21T06:35:41.247Z,6.23
2018-12-21T06:38:10.543Z,8.50
2018-12-21T06:40:39.839Z,5.60
2018-12-21T06:43:09.144Z,5.67
2018-12-21T06:45:38.433Z,7.17
2018-12-21T06:48:07.684Z,5.80
2018-12-21T06:50:37.005Z,8.77
2018-12-21T06:53:06.234Z,4.30
2018-12-21T06:55:35.577Z,4.97
2018-12-21T06:58:04.852Z,5.33
2018-12-21T07:00:34.169Z,9.77
2018-12-21T07:03:03.487Z,5.00
2018-12-21T07:05:32.763Z,9.37
2018-12-21T07:08:02.000Z,7.63
2018-12-21T07:10:31.275Z,5.53
2018-12-21T07:13:00.592Z,6.17
2018-12-21T07:15:29.890Z,6.03
2018-12-21T07:17:59.198Z,6.53
2018-12-21T07:20:28.446Z,5.10
2018-12-21T07:22:57.719Z,6.03
2018-12-21T07:25:26.976Z,8.27
2018-12-21T07:27:56.378Z,7.30
2018-12-21T07:30:25.651Z,6.67
2018-12-21T07:32:55.000Z,5.27
2018-12-21T07:35:24.260Z,7.40
2018-12-21T07:37:53.573Z,10.33
2018-12-21T07:40:22.870Z,6.17
2018-12-21T07:42:52.173Z,6.57
2018-12-21T07:45:21.572Z,7.17
2018-12-21T07:47:50.880Z,9.13
2018-12-21T07:50:20.179Z,9.03
2018-12-21T07:52:49.450Z,6.27
2018-12-21T07:55:18.855Z,6.37
2018-12-21T07:57:48.024Z,8.67
2018-12-21T08:00:17.659Z,10.63
2018-12-21T08:02:46.932Z,6.70
2018-12-21T08:05:16.192Z,10.27
2018-12-21T08:07:45.524Z,7.53
2018-12-21T08:10:19.815Z,14.63
2018-12-21T08:12:49.280Z,10.43
2018-12-21T08:15:18.532Z,13.10
2018-12-21T08:17:47.838Z,11.07
2018-12-21T08:20:17.148Z,8.47
2018-12-21T08:22:46.544Z,9.00
2018-12-21T08:25:15.958Z,11.50
2018-12-21T08:27:45.241Z,9.80
2018-12-21T08:30:14.519Z,8.90
2018-12-21T08:32:43.768Z,9.90
2018-12-21T08:35:13.097Z,10.23
2018-12-21T08:37:42.356Z,8.60
2018-12-21T08:40:11.616Z,7.93
2018-12-21T08:42:41.201Z,10.27
2018-12-21T08:45:10.759Z,8.00
2018-12-21T08:47:40.183Z,6.07
2018-12-21T08:50:10.680Z,5.90
2018-12-21T08:52:39.947Z,9.33
2018-12-21T08:55:09.249Z,9.10
2018-12-21T08:57:38.556Z,7.20
2018-12-21T09:00:10.870Z,7.77
2018-12-21T09:02:40.109Z,8.87
2018-12-21T09:05:09.606Z,7.00
2018-12-21T09:07:38.873Z,4.63
2018-12-21T09:10:10.144Z,7.23
2018-12-21T09:12:39.717Z,9.00
2018-12-21T09:15:12.973Z,9.17
2018-12-21T09:17:42.310Z,8.57
2018-12-21T09:20:11.942Z,7.33
2018-12-21T09:22:41.241Z,5.83
2018-12-21T09:25:10.463Z,6.57
2018-12-21T09:27:39.765Z,6.57
2018-12-21T09:30:13.942Z,6.93
2018-12-21T09:32:43.332Z,9.37
2018-12-21T09:35:12.526Z,5.83
2018-12-21T09:37:41.813Z,3.60
2018-12-21T09:40:12.536Z,5.13
2018-12-21T09:42:41.839Z,3.57
2018-12-21T09:45:11.247Z,3.80
2018-12-21T09:47:40.561Z,4.47
2018-12-21T09:50:10.588Z,3.70
2018-12-21T09:52:39.906Z,2.93
2018-12-21T09:55:09.183Z,5.77
2018-12-21T09:57:38.466Z,4.47
2018-12-21T10:00:10.792Z,2.93
2018-12-21T10:02:41.002Z,3.13
2018-12-21T10:05:14.510Z,2.47
2018-12-21T10:07:42.222Z,1.93
2018-12-21T10:10:11.545Z,2.93
2018-12-21T10:12:40.823Z,2.33
2018-12-21T10:15:10.615Z,1.93
2018-12-21T10:17:39.967Z,3.53
2018-12-21T10:20:09.733Z,4.50
2018-12-21T10:22:39.025Z,2.17
2018-12-21T10:25:08.497Z,3.17
2018-12-21T10:27:37.781Z,2.00
2018-12-21T10:30:09.599Z,3.03
2018-12-21T10:32:38.944Z,3.63
2018-12-21T10:35:08.404Z,6.57
2018-12-21T10:37:37.771Z,1.87
2018-12-21T10:40:08.009Z,6.50
2018-12-21T10:42:37.388Z,1.73
2018-12-21T10:45:07.363Z,3.30
2018-12-21T10:47:36.695Z,5.20
2018-12-21T10:50:08.796Z,2.87
2018-12-21T10:52:38.935Z,2.67
2018-12-21T10:55:07.791Z,2.37
2018-12-21T10:57:38.094Z,2.57
2018-12-21T11:00:09.851Z,2.90
2018-12-21T11:02:39.171Z,2.73
2018-12-21T11:05:08.679Z,2.43
2018-12-21T11:07:38.075Z,3.40
2018-12-21T11:10:10.181Z,2.63
2018-12-21T11:12:39.414Z,1.80
2018-12-21T11:15:08.675Z,4.10
2018-12-21T11:17:38.072Z,1.73
2018-12-21T11:20:08.084Z,2.20
2018-12-21T11:22:37.360Z,2.63
2018-12-21T11:25:09.348Z,3.80
2018-12-21T11:27:38.719Z,1.80
2018-12-21T11:30:08.759Z,3.87
2018-12-21T11:32:38.135Z,2.40
2018-12-21T11:35:07.451Z,4.27
2018-12-21T11:37:36.861Z,2.53
2018-12-21T11:40:06.606Z,1.23
2018-12-21T11:42:35.953Z,2.70
2018-12-21T11:45:07.025Z,3.37
2018-12-21T11:47:36.293Z,2.13
2018-12-21T11:50:07.371Z,1.60
2018-12-21T11:52:36.647Z,1.53
2018-12-21T11:55:06.174Z,1.20
2018-12-21T11:57:35.441Z,1.50
2018-12-21T12:00:05.534Z,1.37
2018-12-21T12:02:34.857Z,4.77
2018-12-21T12:05:04.193Z,2.03
2018-12-21T12:07:33.455Z,2.43
2018-12-21T12:10:02.910Z,1.37
2018-12-21T12:12:32.183Z,1.10
2018-12-21T12:15:01.467Z,1.27
2018-12-21T12:17:30.707Z,2.10
2018-12-21T12:20:00.287Z,3.70
2018-12-21T12:22:29.425Z,16.17
2018-12-21T12:24:58.677Z,2.77
2018-12-21T12:27:28.014Z,2.27
2018-12-21T12:29:57.309Z,2.43
2018-12-21T12:32:26.645Z,2.83
2018-12-21T12:34:55.927Z,2.07
2018-12-21T12:37:25.205Z,2.20
2018-12-21T12:39:54.587Z,1.63
2018-12-21T12:42:23.905Z,1.87
2018-12-21T12:44:53.183Z,1.60
2018-12-21T12:47:22.487Z,1.20
2018-12-21T12:49:51.788Z,2.80
2018-12-21T12:52:21.125Z,2.03
2018-12-21T12:54:50.385Z,1.70
2018-12-21T12:57:19.928Z,1.83
2018-12-21T12:59:49.238Z,2.67
2018-12-21T13:02:18.470Z,2.07
2018-12-21T13:04:47.825Z,2.80
2018-12-21T13:07:17.203Z,4.90
2018-12-21T13:09:46.541Z,4.00
2018-12-21T13:12:15.874Z,6.30
2018-12-21T13:14:45.247Z,4.70
2018-12-21T13:17:14.487Z,4.77
2018-12-21T13:19:43.831Z,5.20
2018-12-21T13:22:13.163Z,5.00
2018-12-21T13:24:42.484Z,7.80
2018-12-21T13:27:11.820Z,2.70
2018-12-21T13:29:41.171Z,3.40
2018-12-21T13:32:10.433Z,3.30
2018-12-21T13:34:39.839Z,2.57
2018-12-21T13:37:09.121Z,3.60
2018-12-21T13:39:38.449Z,2.90
2018-12-21T13:42:07.708Z,1.80
2018-12-21T13:44:36.991Z,4.90
2018-12-21T13:47:06.330Z,1.50
2018-12-21T13:49:35.709Z,2.77
2018-12-21T13:52:05.002Z,1.63
2018-12-21T13:54:34.272Z,1.47
2018-12-21T13:57:03.644Z,1.63
2018-12-21T13:59:33.042Z,1.80
2018-12-21T14:02:02.350Z,1.40
2018-12-21T14:04:31.672Z,2.00
2018-12-21T14:07:01.051Z,1.70
2018-12-21T14:09:30.480Z,1.70
2018-12-21T14:11:59.851Z,1.80
2018-12-21T14:14:29.216Z,1.40
2018-12-21T14:16:58.653Z,3.10
2018-12-21T14:19:27.940Z,2.90
2018-12-21T14:21:57.273Z,1.63
2018-12-21T14:24:26.570Z,1.47
2018-12-21T14:26:55.889Z,2.33
2018-12-21T14:29:25.180Z,1.90
2018-12-21T14:31:54.442Z,3.13
2018-12-21T14:34:23.885Z,1.27
2018-12-21T14:36:53.225Z,4.93
2018-12-21T14:39:22.465Z,1.73
2018-12-21T14:41:51.801Z,2.20
2018-12-21T14:44:21.091Z,1.93
2018-12-21T14:46:50.507Z,3.00
2018-12-21T14:49:19.770Z,3.10
2018-12-21T14:51:49.211Z,2.80
2018-12-21T14:54:18.541Z,2.87
2018-12-21T14:56:47.919Z,3.60
2018-12-21T14:59:17.185Z,3.33
2018-12-21T15:01:46.505Z,4.13
2018-12-21T15:04:15.802Z,3.10
2018-12-21T15:06:45.246Z,4.50
2018-12-21T15:09:14.523Z,4.83
2018-12-21T15:11:43.857Z,6.63
2018-12-21T15:14:13.103Z,4.87
2018-12-21T15:16:42.395Z,4.93
2018-12-21T15:19:11.729Z,6.80
2018-12-21T15:21:43.166Z,7.00
2018-12-21T15:24:12.472Z,6.77
2018-12-21T15:26:41.758Z,7.30
2018-12-21T15:29:11.087Z,6.80
2018-12-21T15:31:40.460Z,6.67
2018-12-21T15:34:09.732Z,6.90
2018-12-21T15:36:39.160Z,5.90
2018-12-21T15:39:08.588Z,6.53
2018-12-21T15:41:37.872Z,5.60
2018-12-21T15:44:07.155Z,6.33
2018-12-21T15:46:36.472Z,5.07
2018-12-21T15:49:05.790Z,4.70
2018-12-21T15:51:35.180Z,4.37
2018-12-21T15:54:04.470Z,3.60
2018-12-21T15:56:33.785Z,3.20
2018-12-21T15:59:03.092Z,2.57
2018-12-21T16:01:36.756Z,2.57
2018-12-21T16:04:01.828Z,2.33
2018-12-21T16:06:31.082Z,2.63
2018-12-21T16:09:00.542Z,1.83
2018-12-21T16:11:29.795Z,1.30
2018-12-21T16:13:59.208Z,3.13
2018-12-21T16:16:28.454Z,2.43
2018-12-21T16:18:57.739Z,2.00
2018-12-21T16:21:27.086Z,2.90
2018-12-21T16:23:56.387Z,2.03
2018-12-21T16:26:25.650Z,1.80
2018-12-21T16:28:54.992Z,2.07
2018-12-21T16:31:24.325Z,2.30
2018-12-21T16:33:53.694Z,2.37
2018-12-21T16:36:23.014Z,1.63
2018-12-21T16:38:52.312Z,2.30
2018-12-21T16:41:23.786Z,1.70
2018-12-21T16:43:53.110Z,2.30
2018-12-21T16:46:22.388Z,0.90
2018-12-21T16:48:51.667Z,1.43
2018-12-21T16:51:20.998Z,2.60
2018-12-21T16:53:50.362Z,2.40
2018-12-21T16:56:19.686Z,1.97
2018-12-21T16:58:48.949Z,2.03
2018-12-21T17:01:18.276Z,1.80
2018-12-21T17:03:47.624Z,2.83
2018-12-21T17:06:17.004Z,2.27
2018-12-21T17:08:46.323Z,2.87
2018-12-21T17:11:15.654Z,5.33
2018-12-21T17:13:45.074Z,5.80
2018-12-21T17:16:16.318Z,4.37
2018-12-21T17:18:43.580Z,9.83
2018-12-21T17:21:12.827Z,5.77
2018-12-21T17:23:42.162Z,4.47
2018-12-21T17:26:11.464Z,5.77
2018-12-21T17:28:40.788Z,5.53
2018-12-21T17:31:10.100Z,3.33
2018-12-21T17:33:39.360Z,7.77
2018-12-21T17:36:08.772Z,8.17
2018-12-21T17:38:38.064Z,6.43
2018-12-21T17:41:07.355Z,6.03
2018-12-21T17:43:36.715Z,8.60
2018-12-21T17:46:05.994Z,6.13
2018-12-21T17:48:35.238Z,8.47
2018-12-21T17:51:04.546Z,7.20
2018-12-21T17:53:33.799Z,5.63
2018-12-21T17:56:03.140Z,8.37
2018-12-21T17:58:32.396Z,6.00
2018-12-21T18:01:01.719Z,5.67
2018-12-21T18:03:51.693Z,9.10
2018-12-21T18:06:20.902Z,9.47
2018-12-21T18:08:50.274Z,8.37
2018-12-21T18:11:19.670Z,7.50
2018-12-21T18:13:49.169Z,5.53
2018-12-21T18:16:18.440Z,10.40
2018-12-21T18:18:47.812Z,11.40
2018-12-21T18:21:17.074Z,6.53
2018-12-21T18:23:48.306Z,8.80
2018-12-21T18:26:17.582Z,11.33
2018-12-21T18:28:46.866Z,14.23
2018-12-21T18:31:29.395Z,10.27
2018-12-21T18:33:59.874Z,8.40
2018-12-21T18:36:29.294Z,13.23
2018-12-21T18:38:58.699Z,13.03
2018-12-21T18:41:28.022Z,9.30
2018-12-21T18:43:57.325Z,10.17
2018-12-21T18:46:26.712Z,11.90
2018-12-21T18:48:55.976Z,10.87
2018-12-21T18:51:25.259Z,10.20
2018-12-21T18:53:54.536Z,9.10
2018-12-21T18:56:26.382Z,9.03
2018-12-21T18:58:55.638Z,12.03
2018-12-21T19:01:25.073Z,13.93
2018-12-21T19:03:54.465Z,9.47
2018-12-21T19:06:23.770Z,14.50
2018-12-21T19:08:53.101Z,10.53
2018-12-21T19:11:22.374Z,9.10
2018-12-21T19:13:51.670Z,6.80
2018-12-21T19:16:21.037Z,5.50
2018-12-21T19:18:50.328Z,9.13
2018-12-21T19:21:19.592Z,11.20
2018-12-21T19:23:48.990Z,5.97
2018-12-21T19:26:18.257Z,8.27
2018-12-21T19:28:47.513Z,7.07
2018-12-21T19:31:16.790Z,8.40
2018-12-21T19:33:46.127Z,9.50
2018-12-21T19:36:15.564Z,9.00
2018-12-21T19:38:45.026Z,10.80
2018-12-21T19:41:14.301Z,9.73
2018-12-21T19:43:43.599Z,6.23
2018-12-21T19:46:12.887Z,8.40
2018-12-21T19:48:43.242Z,9.20
2018-12-21T19:51:12.542Z,8.43
2018-12-21T19:53:41.832Z,7.47
2018-12-21T19:56:23.331Z,8.70
2018-12-21T19:58:52.626Z,8.40
2018-12-21T20:01:21.852Z,4.83
2018-12-21T20:03:51.120Z,4.93
2018-12-21T20:06:20.448Z,9.20
2018-12-21T20:08:49.739Z,6.63
2018-12-21T20:11:19.027Z,8.33
2018-12-21T20:13:48.361Z,10.00
2018-12-21T20:16:17.670Z,8.63
2018-12-21T20:18:47.788Z,12.37
2018-12-21T20:21:16.281Z,9.40
2018-12-21T20:23:45.588Z,10.67
2018-12-21T20:26:14.896Z,11.07
2018-12-21T20:28:44.232Z,9.10
2018-12-21T20:31:13.464Z,8.50
2018-12-21T20:33:42.726Z,8.43
2018-12-21T20:36:11.956Z,8.60
2018-12-21T20:38:41.322Z,11.97
2018-12-21T20:41:11.601Z,6.30
2018-12-21T20:43:40.961Z,9.00
2018-12-21T20:46:10.199Z,10.30
2018-12-21T20:48:39.565Z,12.50
2018-12-21T20:51:08.855Z,10.57
2018-12-21T20:53:38.137Z,9.83
2018-12-21T20:56:07.458Z,7.53
2018-12-21T20:58:49.433Z,11.27
2018-12-21T21:01:18.889Z,10.47
2018-12-21T21:03:48.262Z,9.23
2018-12-21T21:06:17.583Z,12.57
2018-12-21T21:08:46.851Z,8.60
2018-12-21T21:11:24.003Z,10.03
2018-12-21T21:13:45.454Z,14.13
2018-12-21T21:16:14.775Z,11.10
2018-12-21T21:18:44.049Z,11.17
2018-12-21T21:21:13.369Z,7.43
2018-12-21T21:23:42.654Z,11.30
2018-12-21T21:26:12.035Z,12.80
2018-12-21T21:28:41.419Z,11.73
2018-12-21T21:31:10.689Z,20.63
2018-12-21T21:33:39.946Z,14.97
2018-12-21T21:36:09.263Z,19.07
2018-12-21T21:38:38.579Z,21.53
2018-12-21T21:41:07.969Z,16.07
2018-12-21T21:43:37.312Z,17.13
2018-12-21T21:46:06.578Z,11.90
2018-12-21T21:48:35.888Z,15.23
2018-12-21T21:51:05.142Z,17.57
2018-12-21T21:53:34.445Z,15.80
2018-12-21T21:56:03.692Z,13.77
2018-12-21T21:58:33.099Z,16.80
2018-12-21T22:01:02.560Z,11.63
2018-12-21T22:03:31.907Z,19.63
2018-12-21T22:06:01.282Z,15.33
2018-12-21T22:08:30.617Z,8.50
2018-12-21T22:11:02.037Z,12.80
2018-12-21T22:13:29.261Z,15.97
2018-12-21T22:15:58.589Z,10.50
2018-12-21T22:18:27.858Z,9.80
2018-12-21T22:20:57.882Z,19.00
2018-12-21T22:23:26.559Z,14.80
2018-12-21T22:25:55.936Z,12.57
2018-12-21T22:28:25.313Z,13.60
2018-12-21T22:30:54.649Z,21.03
2018-12-21T22:33:23.999Z,8.90
2018-12-21T22:35:53.330Z,6.37
2018-12-21T22:38:22.684Z,9.67
2018-12-21T22:40:52.040Z,6.33
2018-12-21T22:43:21.309Z,6.90
2018-12-21T22:45:50.615Z,3.63
2018-12-21T22:48:19.899Z,5.63
2018-12-21T22:50:49.245Z,3.13
2018-12-21T22:53:18.612Z,3.73
2018-12-21T22:55:47.969Z,1.53
2018-12-21T22:58:17.306Z,1.60
2018-12-21T23:00:46.600Z,3.03
2018-12-21T23:03:15.910Z,3.93
2018-12-21T23:05:45.165Z,4.53
2018-12-21T23:08:14.519Z,3.20
2018-12-21T23:10:43.840Z,3.20
2018-12-21T23:13:13.112Z,3.23
2018-12-21T23:15:42.428Z,4.37
2018-12-21T23:18:11.686Z,2.13
2018-12-21T23:20:40.980Z,3.93
2018-12-21T23:23:10.356Z,4.23
2018-12-21T23:25:39.635Z,4.73
2018-12-21T23:28:09.074Z,2.13
2018-12-21T23:30:38.455Z,3.50
2018-12-21T23:33:07.712Z,1.50
2018-12-21T23:35:37.051Z,2.13
2018-12-21T23:38:06.357Z,3.40
2018-12-21T23:40:38.020Z,1.80
2018-12-21T23:43:04.982Z,2.23
2018-12-21T23:45:34.355Z,10.57
2018-12-21T23:48:03.755Z,1.93
2018-12-21T23:50:33.176Z,2.17
2018-12-21T23:53:02.572Z,2.37
2018-12-21T23:55:31.848Z,5.40
2018-12-21T23:58:01.116Z,2.10
